sensor_id;sensor_type;location;lat;lon;timestamp;pressure;altitude;pressure_sealevel;temperature;humidity
63088;BME280;49173;43.164;27.786;2022-10-18T00:01:15;102237.63;;;11.20;74.21
63088;BME280;49173;43.164;27.786;2022-10-18T00:03:41;102226.88;;;11.20;74.40
63088;BME280;49173;43.164;27.786;2022-10-18T00:06:07;102229.56;;;11.20;74.66
63088;BME280;49173;43.164;27.786;2022-10-18T00:08:37;102221.50;;;11.20;75.06
63088;BME280;49173;43.164;27.786;2022-10-18T00:11:04;102219.72;;;11.19;74.48
63088;BME280;49173;43.164;27.786;2022-10-18T00:13:30;102217.16;;;11.16;74.33
63088;BME280;49173;43.164;27.786;2022-10-18T00:15:58;102219.03;;;11.13;74.17
63088;BME280;49173;43.164;27.786;2022-10-18T00:18:25;102219.16;;;11.08;74.19
63088;BME280;49173;43.164;27.786;2022-10-18T00:21:01;102225.59;;;11.03;73.56
63088;BME280;49173;43.164;27.786;2022-10-18T00:23:28;102219.38;;;11.00;73.09
63088;BME280;49173;43.164;27.786;2022-10-18T00:26:04;102215.13;;;10.92;73.43
63088;BME280;49173;43.164;27.786;2022-10-18T00:28:32;102208.22;;;10.82;73.29
63088;BME280;49173;43.164;27.786;2022-10-18T00:31:08;102210.03;;;10.81;73.78
63088;BME280;49173;43.164;27.786;2022-10-18T00:33:34;102204.72;;;10.78;73.58
63088;BME280;49173;43.164;27.786;2022-10-18T00:36:00;102202.19;;;10.73;73.74
63088;BME280;49173;43.164;27.786;2022-10-18T00:38:26;102207.59;;;10.72;73.83
63088;BME280;49173;43.164;27.786;2022-10-18T00:40:51;102195.16;;;10.68;74.50
63088;BME280;49173;43.164;27.786;2022-10-18T00:43:18;102191.56;;;10.69;74.40
63088;BME280;49173;43.164;27.786;2022-10-18T00:45:44;102195.16;;;10.68;74.60
63088;BME280;49173;43.164;27.786;2022-10-18T00:48:10;102191.59;;;10.67;74.89
63088;BME280;49173;43.164;27.786;2022-10-18T00:50:38;102187.13;;;10.68;75.58
63088;BME280;49173;43.164;27.786;2022-10-18T00:53:09;102186.13;;;10.72;75.58
63088;BME280;49173;43.164;27.786;2022-10-18T00:55:36;102187.06;;;10.69;75.71
63088;BME280;49173;43.164;27.786;2022-10-18T00:58:03;102190.69;;;10.68;75.29
63088;BME280;49173;43.164;27.786;2022-10-18T01:00:30;102184.53;;;10.65;75.08
63088;BME280;49173;43.164;27.786;2022-10-18T01:02:57;102179.16;;;10.63;74.91
63088;BME280;49173;43.164;27.786;2022-10-18T01:05:24;102178.44;;;10.58;74.41
63088;BME280;49173;43.164;27.786;2022-10-18T01:13:55;102179.56;;;10.48;74.61
63088;BME280;49173;43.164;27.786;2022-10-18T01:22:11;102168.00;;;10.46;75.19
63088;BME280;49173;43.164;27.786;2022-10-18T01:33:14;102168.97;;;10.42;74.85
63088;BME280;49173;43.164;27.786;2022-10-18T01:35:51;102166.38;;;10.39;75.19
63088;BME280;49173;43.164;27.786;2022-10-18T01:38:19;102160.09;;;10.40;75.70
63088;BME280;49173;43.164;27.786;2022-10-18T01:40:47;102156.50;;;10.41;75.71
63088;BME280;49173;43.164;27.786;2022-10-18T01:43:16;102157.38;;;10.41;75.88
63088;BME280;49173;43.164;27.786;2022-10-18T01:45:45;102168.16;;;10.40;75.72
63088;BME280;49173;43.164;27.786;2022-10-18T01:48:13;102171.81;;;10.37;75.47
63088;BME280;49173;43.164;27.786;2022-10-18T01:50:39;102163.91;;;10.31;75.40
63088;BME280;49173;43.164;27.786;2022-10-18T01:53:05;102166.63;;;10.28;75.63
63088;BME280;49173;43.164;27.786;2022-10-18T01:55:42;102161.25;;;10.30;76.16
63088;BME280;49173;43.164;27.786;2022-10-18T02:01:48;102154.81;;;10.37;76.67
63088;BME280;49173;43.164;27.786;2022-10-18T02:07:07;102155.72;;;10.36;75.34
63088;BME280;49173;43.164;27.786;2022-10-18T02:09:52;102153.97;;;10.35;75.31
63088;BME280;49173;43.164;27.786;2022-10-18T02:12:21;102158.38;;;10.37;75.67
63088;BME280;49173;43.164;27.786;2022-10-18T02:14:48;102151.25;;;10.36;75.58
63088;BME280;49173;43.164;27.786;2022-10-18T02:17:15;102155.81;;;10.33;75.01
63088;BME280;49173;43.164;27.786;2022-10-18T02:19:53;102144.28;;;10.28;75.06
63088;BME280;49173;43.164;27.786;2022-10-18T02:22:23;102141.59;;;10.28;75.52
63088;BME280;49173;43.164;27.786;2022-10-18T02:24:53;102142.53;;;10.27;75.40
63088;BME280;49173;43.164;27.786;2022-10-18T02:27:21;102146.19;;;10.24;75.59
63088;BME280;49173;43.164;27.786;2022-10-18T02:29:47;102141.69;;;10.25;75.80
63088;BME280;49173;43.164;27.786;2022-10-18T02:35:28;102144.38;;;10.25;76.26
63088;BME280;49173;43.164;27.786;2022-10-18T02:37:56;102136.44;;;10.18;76.28
63088;BME280;49173;43.164;27.786;2022-10-18T02:40:24;102143.56;;;10.23;76.61
63088;BME280;49173;43.164;27.786;2022-10-18T02:42:56;102147.06;;;10.25;76.79
63088;BME280;49173;43.164;27.786;2022-10-18T02:45:23;102140.81;;;10.24;76.93
63088;BME280;49173;43.164;27.786;2022-10-18T02:47:49;102134.59;;;10.21;76.93
63088;BME280;49173;43.164;27.786;2022-10-18T02:50:15;102124.78;;;10.19;77.05
63088;BME280;49173;43.164;27.786;2022-10-18T02:52:41;102135.47;;;10.21;77.03
63088;BME280;49173;43.164;27.786;2022-10-18T02:55:08;102132.78;;;10.21;77.06
63088;BME280;49173;43.164;27.786;2022-10-18T02:57:34;102131.91;;;10.22;76.91
63088;BME280;49173;43.164;27.786;2022-10-18T03:00:00;102132.84;;;10.19;76.69
63088;BME280;49173;43.164;27.786;2022-10-18T03:02:26;102140.06;;;10.17;76.96
63088;BME280;49173;43.164;27.786;2022-10-18T03:04:52;102136.59;;;10.12;76.79
63088;BME280;49173;43.164;27.786;2022-10-18T03:07:18;102138.34;;;10.15;76.41
63088;BME280;49173;43.164;27.786;2022-10-18T03:09:43;102135.63;;;10.16;76.44
63088;BME280;49173;43.164;27.786;2022-10-18T03:12:10;102149.09;;;10.13;76.28
63088;BME280;49173;43.164;27.786;2022-10-18T03:14:36;102147.41;;;10.09;76.11
63088;BME280;49173;43.164;27.786;2022-10-18T03:17:02;102138.50;;;10.07;76.06
63088;BME280;49173;43.164;27.786;2022-10-18T03:19:28;102140.44;;;10.02;76.30
63088;BME280;49173;43.164;27.786;2022-10-18T03:21:53;102149.38;;;10.03;76.72
63088;BME280;49173;43.164;27.786;2022-10-18T03:24:19;102149.41;;;10.01;76.67
63088;BME280;49173;43.164;27.786;2022-10-18T03:26:45;102146.75;;;10.00;76.70
63088;BME280;49173;43.164;27.786;2022-10-18T03:29:11;102141.38;;;10.00;76.66
63088;BME280;49173;43.164;27.786;2022-10-18T03:31:36;102136.97;;;9.97;76.78
63088;BME280;49173;43.164;27.786;2022-10-18T03:34:02;102141.38;;;10.00;76.87
63088;BME280;49173;43.164;27.786;2022-10-18T03:36:28;102135.13;;;10.01;76.91
63088;BME280;49173;43.164;27.786;2022-10-18T03:38:54;102139.66;;;9.97;76.74
63088;BME280;49173;43.164;27.786;2022-10-18T03:41:19;102138.81;;;9.95;76.77
63088;BME280;49173;43.164;27.786;2022-10-18T03:43:46;102136.19;;;9.92;76.83
63088;BME280;49173;43.164;27.786;2022-10-18T03:46:12;102131.75;;;9.91;76.98
63088;BME280;49173;43.164;27.786;2022-10-18T03:48:38;102134.47;;;9.89;77.13
63088;BME280;49173;43.164;27.786;2022-10-18T03:51:04;102128.28;;;9.87;77.12
63088;BME280;49173;43.164;27.786;2022-10-18T03:53:29;102130.03;;;9.88;77.33
63088;BME280;49173;43.164;27.786;2022-10-18T03:55:55;102124.72;;;9.85;77.13
63088;BME280;49173;43.164;27.786;2022-10-18T03:58:23;102131.03;;;9.84;77.21
63088;BME280;49173;43.164;27.786;2022-10-18T04:00:50;102134.53;;;9.86;77.49
63088;BME280;49173;43.164;27.786;2022-10-18T04:03:16;102133.66;;;9.86;77.55
63088;BME280;49173;43.164;27.786;2022-10-18T04:05:43;102134.53;;;9.86;77.33
63088;BME280;49173;43.164;27.786;2022-10-18T04:08:09;102137.25;;;9.85;76.95
63088;BME280;49173;43.164;27.786;2022-10-18T04:10:36;102142.66;;;9.83;77.24
63088;BME280;49173;43.164;27.786;2022-10-18T04:13:03;102135.59;;;9.81;77.46
63088;BME280;49173;43.164;27.786;2022-10-18T04:15:29;102138.28;;;9.81;77.57
63088;BME280;49173;43.164;27.786;2022-10-18T04:17:55;102132.03;;;9.79;77.71
63088;BME280;49173;43.164;27.786;2022-10-18T04:20:22;102136.50;;;9.80;77.84
63088;BME280;49173;43.164;27.786;2022-10-18T04:22:48;102137.53;;;9.74;77.70
63088;BME280;49173;43.164;27.786;2022-10-18T04:25:14;102137.50;;;9.76;78.06
63088;BME280;49173;43.164;27.786;2022-10-18T04:27:40;102136.47;;;9.81;78.42
63088;BME280;49173;43.164;27.786;2022-10-18T04:30:06;102131.16;;;9.80;78.44
63088;BME280;49173;43.164;27.786;2022-10-18T04:32:32;102132.88;;;9.82;79.05
63088;BME280;49173;43.164;27.786;2022-10-18T04:35:03;102130.97;;;9.87;79.26
63088;BME280;49173;43.164;27.786;2022-10-18T04:37:30;102125.50;;;9.90;79.43
63088;BME280;49173;43.164;27.786;2022-10-18T04:39:56;102120.97;;;9.94;79.64
63088;BME280;49173;43.164;27.786;2022-10-18T04:42:22;102124.53;;;9.95;79.62
63088;BME280;49173;43.164;27.786;2022-10-18T04:44:48;102120.88;;;9.97;79.62
63088;BME280;49173;43.164;27.786;2022-10-18T04:47:14;102123.47;;;10.02;79.90
63088;BME280;49173;43.164;27.786;2022-10-18T04:49:39;102125.03;;;10.10;79.69
63088;BME280;49173;43.164;27.786;2022-10-18T04:52:05;102111.63;;;10.10;79.70
63088;BME280;49173;43.164;27.786;2022-10-18T04:54:31;102119.56;;;10.15;79.96
63088;BME280;49173;43.164;27.786;2022-10-18T04:56:57;102124.84;;;10.18;80.01
63088;BME280;49173;43.164;27.786;2022-10-18T04:59:23;102122.94;;;10.22;79.78
63088;BME280;49173;43.164;27.786;2022-10-18T05:01:48;102118.34;;;10.28;79.61
63088;BME280;49173;43.164;27.786;2022-10-18T05:04:14;102129.78;;;10.35;79.37
63088;BME280;49173;43.164;27.786;2022-10-18T05:06:40;102126.97;;;10.41;79.13
63088;BME280;49173;43.164;27.786;2022-10-18T05:09:06;102125.13;;;10.43;78.79
63088;BME280;49173;43.164;27.786;2022-10-18T05:11:31;102126.03;;;10.43;79.10
63088;BME280;49173;43.164;27.786;2022-10-18T05:13:57;102120.56;;;10.47;78.87
63088;BME280;49173;43.164;27.786;2022-10-18T05:16:23;102126.75;;;10.50;78.83
63088;BME280;49173;43.164;27.786;2022-10-18T05:18:49;102133.78;;;10.54;78.86
63088;BME280;49173;43.164;27.786;2022-10-18T05:21:15;102130.16;;;10.55;79.11
63088;BME280;49173;43.164;27.786;2022-10-18T05:23:41;102128.34;;;10.57;79.13
63088;BME280;49173;43.164;27.786;2022-10-18T05:26:07;102129.13;;;10.61;79.40
63088;BME280;49173;43.164;27.786;2022-10-18T05:28:34;102128.97;;;10.67;79.56
63088;BME280;49173;43.164;27.786;2022-10-18T05:31:01;102131.53;;;10.71;79.66
63088;BME280;49173;43.164;27.786;2022-10-18T05:33:27;102119.81;;;10.74;79.84
63088;BME280;49173;43.164;27.786;2022-10-18T05:35:53;102119.78;;;10.76;80.44
63088;BME280;49173;43.164;27.786;2022-10-18T05:38:19;102117.75;;;10.84;80.99
63088;BME280;49173;43.164;27.786;2022-10-18T05:40:45;102121.31;;;10.84;81.17
63088;BME280;49173;43.164;27.786;2022-10-18T05:43:11;102123.00;;;10.88;80.82
63088;BME280;49173;43.164;27.786;2022-10-18T05:45:36;102125.63;;;10.90;80.55
63088;BME280;49173;43.164;27.786;2022-10-18T05:48:03;102121.94;;;10.94;80.31
63088;BME280;49173;43.164;27.786;2022-10-18T05:50:29;102132.69;;;10.94;80.26
63088;BME280;49173;43.164;27.786;2022-10-18T05:52:56;102127.31;;;10.94;80.43
63088;BME280;49173;43.164;27.786;2022-10-18T05:55:23;102129.13;;;10.93;80.38
63088;BME280;49173;43.164;27.786;2022-10-18T05:57:50;102130.88;;;10.94;80.91
63088;BME280;49173;43.164;27.786;2022-10-18T06:00:16;102124.38;;;11.03;81.58
63088;BME280;49173;43.164;27.786;2022-10-18T06:02:43;102134.97;;;11.39;81.47
63088;BME280;49173;43.164;27.786;2022-10-18T06:05:09;102126.41;;;11.83;79.97
63088;BME280;49173;43.164;27.786;2022-10-18T06:07:35;102129.88;;;12.15;78.78
63088;BME280;49173;43.164;27.786;2022-10-18T06:10:00;102135.63;;;12.31;77.92
63088;BME280;49173;43.164;27.786;2022-10-18T06:12:26;102131.03;;;12.34;77.77
63088;BME280;49173;43.164;27.786;2022-10-18T06:14:52;102134.47;;;12.38;77.88
63088;BME280;49173;43.164;27.786;2022-10-18T06:17:18;102130.91;;;12.37;78.12
63088;BME280;49173;43.164;27.786;2022-10-18T06:19:44;102138.94;;;12.39;78.15
63088;BME280;49173;43.164;27.786;2022-10-18T06:22:10;102139.00;;;12.37;78.19
63088;BME280;49173;43.164;27.786;2022-10-18T06:24:37;102132.00;;;12.32;78.49
63088;BME280;49173;43.164;27.786;2022-10-18T06:27:03;102136.50;;;12.31;78.18
63088;BME280;49173;43.164;27.786;2022-10-18T06:29:38;102142.75;;;12.33;78.60
63088;BME280;49173;43.164;27.786;2022-10-18T06:32:05;102132.78;;;12.35;78.23
63088;BME280;49173;43.164;27.786;2022-10-18T06:34:31;102141.69;;;12.37;77.72
63088;BME280;49173;43.164;27.786;2022-10-18T06:36:57;102144.28;;;12.41;78.20
63088;BME280;49173;43.164;27.786;2022-10-18T06:39:23;102136.25;;;12.39;78.10
63088;BME280;49173;43.164;27.786;2022-10-18T06:41:49;102132.59;;;12.42;78.51
63088;BME280;49173;43.164;27.786;2022-10-18T06:44:15;102124.72;;;12.35;79.47
63088;BME280;49173;43.164;27.786;2022-10-18T06:46:43;102128.13;;;12.41;79.35
63088;BME280;49173;43.164;27.786;2022-10-18T06:49:10;102130.59;;;12.47;79.48
63088;BME280;49173;43.164;27.786;2022-10-18T06:51:41;102129.44;;;12.54;80.45
63088;BME280;49173;43.164;27.786;2022-10-18T06:54:07;102130.97;;;12.61;80.22
63088;BME280;49173;43.164;27.786;2022-10-18T06:56:33;102123.63;;;12.66;81.07
63088;BME280;49173;43.164;27.786;2022-10-18T06:58:59;102127.25;;;12.65;80.46
63088;BME280;49173;43.164;27.786;2022-10-18T07:01:25;102130.97;;;12.61;80.68
63088;BME280;49173;43.164;27.786;2022-10-18T07:03:53;102123.75;;;12.63;80.64
63088;BME280;49173;43.164;27.786;2022-10-18T07:06:21;102127.13;;;12.68;80.58
63088;BME280;49173;43.164;27.786;2022-10-18T07:08:48;102119.69;;;12.76;81.77
63088;BME280;49173;43.164;27.786;2022-10-18T07:11:17;102123.91;;;12.83;82.17
63088;BME280;49173;43.164;27.786;2022-10-18T07:13:43;102130.66;;;12.95;82.85
63088;BME280;49173;43.164;27.786;2022-10-18T07:16:11;102122.06;;;13.09;82.76
63088;BME280;49173;43.164;27.786;2022-10-18T07:18:40;102118.94;;;13.21;82.33
63088;BME280;49173;43.164;27.786;2022-10-18T07:21:08;102118.00;;;13.22;81.36
63088;BME280;49173;43.164;27.786;2022-10-18T07:23:37;102117.94;;;13.24;81.17
63088;BME280;49173;43.164;27.786;2022-10-18T07:28:43;102109.53;;;13.33;81.18
63088;BME280;49173;43.164;27.786;2022-10-18T07:31:10;102109.53;;;13.33;81.13
63088;BME280;49173;43.164;27.786;2022-10-18T07:33:36;102106.38;;;13.43;81.80
63088;BME280;49173;43.164;27.786;2022-10-18T07:36:04;102107.81;;;13.54;81.85
63088;BME280;49173;43.164;27.786;2022-10-18T07:38:30;102101.25;;;13.59;82.01
63088;BME280;49173;43.164;27.786;2022-10-18T07:40:59;102106.19;;;13.71;81.49
63088;BME280;49173;43.164;27.786;2022-10-18T07:43:26;102094.91;;;13.84;81.57
63088;BME280;49173;43.164;27.786;2022-10-18T07:45:54;102089.97;;;13.93;80.79
63088;BME280;49173;43.164;27.786;2022-10-18T07:48:21;102096.69;;;14.05;80.38
63088;BME280;49173;43.164;27.786;2022-10-18T07:50:47;102095.34;;;14.15;80.55
63088;BME280;49173;43.164;27.786;2022-10-18T07:53:12;102082.38;;;14.25;79.33
63088;BME280;49173;43.164;27.786;2022-10-18T07:55:39;102082.72;;;14.38;78.38
63088;BME280;49173;43.164;27.786;2022-10-18T07:58:04;102086.78;;;14.48;77.32
63088;BME280;49173;43.164;27.786;2022-10-18T08:00:30;102084.72;;;14.54;77.20
63088;BME280;49173;43.164;27.786;2022-10-18T08:02:57;102083.50;;;14.62;76.18
63088;BME280;49173;43.164;27.786;2022-10-18T08:05:25;102080.25;;;14.74;75.95
63088;BME280;49173;43.164;27.786;2022-10-18T08:07:52;102076.88;;;14.69;75.80
63088;BME280;49173;43.164;27.786;2022-10-18T08:10:19;102077.28;;;14.80;75.31
63088;BME280;49173;43.164;27.786;2022-10-18T08:12:45;102078.06;;;14.82;74.44
63088;BME280;49173;43.164;27.786;2022-10-18T08:15:11;102080.41;;;14.90;74.40
63088;BME280;49173;43.164;27.786;2022-10-18T08:17:37;102074.59;;;14.99;73.40
63088;BME280;49173;43.164;27.786;2022-10-18T08:20:04;102073.34;;;15.06;73.44
63088;BME280;49173;43.164;27.786;2022-10-18T08:22:30;102073.88;;;15.14;72.65
63088;BME280;49173;43.164;27.786;2022-10-18T08:24:56;102058.22;;;15.21;72.27
63088;BME280;49173;43.164;27.786;2022-10-18T08:27:21;102055.91;;;15.32;71.14
63088;BME280;49173;43.164;27.786;2022-10-18T08:29:49;102054.66;;;15.39;70.01
63088;BME280;49173;43.164;27.786;2022-10-18T08:32:15;102050.84;;;15.43;70.15
63088;BME280;49173;43.164;27.786;2022-10-18T08:34:41;102047.53;;;15.55;69.35
63088;BME280;49173;43.164;27.786;2022-10-18T08:37:07;102043.88;;;15.56;68.86
63088;BME280;49173;43.164;27.786;2022-10-18T08:39:34;102039.72;;;15.49;68.55
63088;BME280;49173;43.164;27.786;2022-10-18T08:44:30;102027.88;;;15.52;67.96
63088;BME280;49173;43.164;27.786;2022-10-18T08:47:04;102030.50;;;15.53;67.86
63088;BME280;49173;43.164;27.786;2022-10-18T08:49:37;102027.50;;;15.59;66.87
63088;BME280;49173;43.164;27.786;2022-10-18T08:52:18;102028.19;;;15.64;67.13
63088;BME280;49173;43.164;27.786;2022-10-18T08:57:34;102032.53;;;15.86;65.61
63088;BME280;49173;43.164;27.786;2022-10-18T09:00:27;102025.38;;;16.02;66.16
63088;BME280;49173;43.164;27.786;2022-10-18T09:03:18;102018.50;;;16.12;64.67
63088;BME280;49173;43.164;27.786;2022-10-18T09:05:54;102021.88;;;16.17;64.06
63088;BME280;49173;43.164;27.786;2022-10-18T09:08:29;102012.97;;;16.15;64.70
63088;BME280;49173;43.164;27.786;2022-10-18T09:11:28;102012.00;;;16.16;64.85
63088;BME280;49173;43.164;27.786;2022-10-18T09:22:13;102006.41;;;16.37;62.51
63088;BME280;49173;43.164;27.786;2022-10-18T09:27:42;102000.69;;;16.43;61.87
63088;BME280;49173;43.164;27.786;2022-10-18T09:30:19;101999.28;;;16.52;61.94
63088;BME280;49173;43.164;27.786;2022-10-18T09:32:55;101992.34;;;16.63;61.51
63088;BME280;49173;43.164;27.786;2022-10-18T09:35:55;101978.56;;;16.84;60.25
63088;BME280;49173;43.164;27.786;2022-10-18T09:38:27;101983.50;;;16.93;59.31
63088;BME280;49173;43.164;27.786;2022-10-18T09:40:59;101984.72;;;17.03;57.94
63088;BME280;49173;43.164;27.786;2022-10-18T09:43:57;101986.47;;;17.04;57.84
63088;BME280;49173;43.164;27.786;2022-10-18T09:46:28;101978.28;;;17.06;57.97
63088;BME280;49173;43.164;27.786;2022-10-18T09:49:05;101980.28;;;17.18;58.28
63088;BME280;49173;43.164;27.786;2022-10-18T09:51:36;101971.69;;;17.25;57.25
63088;BME280;49173;43.164;27.786;2022-10-18T09:56:39;101964.59;;;17.39;55.07
63088;BME280;49173;43.164;27.786;2022-10-18T09:59:35;101954.97;;;17.49;56.19
63088;BME280;49173;43.164;27.786;2022-10-18T10:02:02;101950.28;;;17.67;54.54
63088;BME280;49173;43.164;27.786;2022-10-18T10:04:27;101955.47;;;17.71;54.43
63088;BME280;49173;43.164;27.786;2022-10-18T10:06:55;101945.50;;;17.72;55.10
63088;BME280;49173;43.164;27.786;2022-10-18T10:09:43;101942.13;;;17.82;55.41
63088;BME280;49173;43.164;27.786;2022-10-18T10:13:01;101935.81;;;17.82;53.24
63088;BME280;49173;43.164;27.786;2022-10-18T10:15:20;101931.25;;;17.82;53.74
63088;BME280;49173;43.164;27.786;2022-10-18T10:17:55;101922.16;;;17.83;54.48
63088;BME280;49173;43.164;27.786;2022-10-18T10:20:24;101924.28;;;17.78;54.14
63088;BME280;49173;43.164;27.786;2022-10-18T10:22:52;101920.59;;;17.79;53.48
63088;BME280;49173;43.164;27.786;2022-10-18T10:25:21;101919.00;;;17.75;53.46
63088;BME280;49173;43.164;27.786;2022-10-18T10:27:49;101905.38;;;17.77;54.02
63088;BME280;49173;43.164;27.786;2022-10-18T10:32:51;101907.31;;;17.89;53.29
63088;BME280;49173;43.164;27.786;2022-10-18T10:37:54;101900.84;;;17.92;54.65
63088;BME280;49173;43.164;27.786;2022-10-18T10:40:20;101903.25;;;17.96;55.49
63088;BME280;49173;43.164;27.786;2022-10-18T10:42:58;101894.06;;;17.99;55.49
63088;BME280;49173;43.164;27.786;2022-10-18T10:45:27;101899.50;;;17.99;55.89
63088;BME280;49173;43.164;27.786;2022-10-18T10:48:05;101885.09;;;17.97;55.60
63088;BME280;49173;43.164;27.786;2022-10-18T10:50:50;101886.06;;;17.96;55.71
63088;BME280;49173;43.164;27.786;2022-10-18T10:57:01;101880.28;;;18.02;55.84
63088;BME280;49173;43.164;27.786;2022-10-18T10:59:39;101869.22;;;18.05;55.47
63088;BME280;49173;43.164;27.786;2022-10-18T11:04:52;101858.06;;;18.09;55.30
63088;BME280;49173;43.164;27.786;2022-10-18T11:07:32;101854.47;;;18.09;55.50
63088;BME280;49173;43.164;27.786;2022-10-18T11:12:33;101850.28;;;18.18;54.93
63088;BME280;49173;43.164;27.786;2022-10-18T11:17:54;101837.19;;;18.24;54.37
63088;BME280;49173;43.164;27.786;2022-10-18T11:20:36;101837.50;;;18.34;54.67
63088;BME280;49173;43.164;27.786;2022-10-18T11:23:26;101822.22;;;18.46;55.17
63088;BME280;49173;43.164;27.786;2022-10-18T11:36:40;101812.44;;;18.43;54.87
63088;BME280;49173;43.164;27.786;2022-10-18T11:49:50;101780.63;;;18.58;54.84
63088;BME280;49173;43.164;27.786;2022-10-18T11:52:32;101784.03;;;18.61;55.30
63088;BME280;49173;43.164;27.786;2022-10-18T11:55:24;101785.56;;;18.65;54.87
63088;BME280;49173;43.164;27.786;2022-10-18T12:01:03;101790.53;;;18.59;56.08
63088;BME280;49173;43.164;27.786;2022-10-18T12:03:57;101775.50;;;18.53;54.54
63088;BME280;49173;43.164;27.786;2022-10-18T12:06:34;101771.72;;;18.56;53.88
63088;BME280;49173;43.164;27.786;2022-10-18T12:09:06;101772.00;;;18.51;54.73
63088;BME280;49173;43.164;27.786;2022-10-18T12:11:40;101767.66;;;18.49;54.92
63088;BME280;49173;43.164;27.786;2022-10-18T12:14:34;101763.50;;;18.43;54.06
63088;BME280;49173;43.164;27.786;2022-10-18T12:17:05;101753.53;;;18.29;54.49
63088;BME280;49173;43.164;27.786;2022-10-18T12:19:35;101756.34;;;18.28;54.85
63088;BME280;49173;43.164;27.786;2022-10-18T12:22:39;101749.94;;;18.29;53.77
63088;BME280;49173;43.164;27.786;2022-10-18T12:25:15;101755.94;;;18.34;52.46
63088;BME280;49173;43.164;27.786;2022-10-18T12:27:53;101746.44;;;18.27;54.06
63088;BME280;49173;43.164;27.786;2022-10-18T12:31:05;101741.56;;;18.32;54.95
63088;BME280;49173;43.164;27.786;2022-10-18T12:33:33;101739.31;;;18.38;54.71
63088;BME280;49173;43.164;27.786;2022-10-18T12:39:11;101735.16;;;18.47;53.27
63088;BME280;49173;43.164;27.786;2022-10-18T12:41:41;101724.72;;;18.54;54.41
63088;BME280;49173;43.164;27.786;2022-10-18T12:44:25;101728.56;;;18.64;53.54
63088;BME280;49173;43.164;27.786;2022-10-18T12:46:56;101721.88;;;18.70;53.15
63088;BME280;49173;43.164;27.786;2022-10-18T12:49:28;101721.47;;;18.76;54.05
63088;BME280;49173;43.164;27.786;2022-10-18T12:52:03;101716.38;;;18.84;53.39
63088;BME280;49173;43.164;27.786;2022-10-18T12:54:38;101713.44;;;18.87;54.23
63088;BME280;49173;43.164;27.786;2022-10-18T12:57:17;101716.28;;;18.85;53.91
63088;BME280;49173;43.164;27.786;2022-10-18T12:59:47;101707.88;;;18.76;54.60
63088;BME280;49173;43.164;27.786;2022-10-18T13:02:21;101713.41;;;18.74;54.07
63088;BME280;49173;43.164;27.786;2022-10-18T13:04:47;101707.00;;;18.75;54.37
63088;BME280;49173;43.164;27.786;2022-10-18T13:07:20;101707.94;;;18.74;54.47
63088;BME280;49173;43.164;27.786;2022-10-18T13:15:39;101696.59;;;18.82;54.02
63088;BME280;49173;43.164;27.786;2022-10-18T13:21:24;101694.81;;;18.81;53.74
63088;BME280;49173;43.164;27.786;2022-10-18T13:37:04;101679.47;;;18.80;54.11
63088;BME280;49173;43.164;27.786;2022-10-18T13:39:31;101674.25;;;18.77;54.88
63088;BME280;49173;43.164;27.786;2022-10-18T13:44:33;101671.19;;;18.81;54.44
63088;BME280;49173;43.164;27.786;2022-10-18T13:55:41;101662.63;;;18.87;54.30
63088;BME280;49173;43.164;27.786;2022-10-18T13:58:39;101647.09;;;18.89;54.45
63088;BME280;49173;43.164;27.786;2022-10-18T14:01:31;101650.56;;;18.91;53.84
63088;BME280;49173;43.164;27.786;2022-10-18T14:07:02;101643.69;;;18.86;54.71
63088;BME280;49173;43.164;27.786;2022-10-18T14:09:49;101639.34;;;18.83;54.91
63088;BME280;49173;43.164;27.786;2022-10-18T14:12:44;101636.63;;;18.83;55.28
63088;BME280;49173;43.164;27.786;2022-10-18T14:15:19;101645.97;;;18.79;54.50
63088;BME280;49173;43.164;27.786;2022-10-18T14:17:50;101639.19;;;18.72;54.92
63088;BME280;49173;43.164;27.786;2022-10-18T14:23:05;101626.31;;;18.61;55.74
63088;BME280;49173;43.164;27.786;2022-10-18T14:25:36;101630.31;;;18.56;55.99
63088;BME280;49173;43.164;27.786;2022-10-18T14:28:28;101620.63;;;18.52;56.21
63088;BME280;49173;43.164;27.786;2022-10-18T14:31:03;101618.00;;;18.50;56.54
63088;BME280;49173;43.164;27.786;2022-10-18T14:36:11;101613.00;;;18.44;57.27
63088;BME280;49173;43.164;27.786;2022-10-18T14:38:51;101615.72;;;18.44;57.52
63088;BME280;49173;43.164;27.786;2022-10-18T14:41:23;101609.63;;;18.41;57.24
63088;BME280;49173;43.164;27.786;2022-10-18T14:43:52;101605.16;;;18.39;57.08
63088;BME280;49173;43.164;27.786;2022-10-18T14:46:21;101597.50;;;18.32;57.31
63088;BME280;49173;43.164;27.786;2022-10-18T14:48:58;101602.19;;;18.30;57.23
63088;BME280;49173;43.164;27.786;2022-10-18T14:51:26;101599.56;;;18.28;57.70
63088;BME280;49173;43.164;27.786;2022-10-18T14:53:53;101594.38;;;18.25;58.03
63088;BME280;49173;43.164;27.786;2022-10-18T14:56:26;101607.94;;;18.25;58.31
63088;BME280;49173;43.164;27.786;2022-10-18T14:58:55;101591.84;;;18.22;58.43
63088;BME280;49173;43.164;27.786;2022-10-18T15:01:25;101592.13;;;18.18;58.59
63088;BME280;49173;43.164;27.786;2022-10-18T15:04:01;101585.06;;;18.15;58.56
63088;BME280;49173;43.164;27.786;2022-10-18T15:06:28;101594.72;;;18.06;58.64
63088;BME280;49173;43.164;27.786;2022-10-18T15:08:58;101593.06;;;18.04;58.62
63088;BME280;49173;43.164;27.786;2022-10-18T15:11:26;101586.09;;;18.00;58.67
63088;BME280;49173;43.164;27.786;2022-10-18T15:13:58;101592.50;;;17.99;58.66